Comstock, Texas
Current Conditions -  °F | °C
As of 11:53 PM on Wednesday 22 Oct 2014 (Local Time) from KDRT Reporting Station
Haze Haze  
Wind Chill: 66°   Ceiling: 8000
Heat Index: 66°   Visibility: 4mi
Dew Point: 64°   Wind: 0mph
Humidity: 93%   Direction: NA
Pressure: 30.1"   Gusts: NA
Location:  29.68°N, 101.17°W
Report Text: KDRT 230453Z AUTO 00000KT 4SM BR FEW060 OVC080 19/18 A3010 RMK AO2 SLP180 T01890178
Loading
Personal Weather Stations






























Interactive Weather Map
Tropical Storm Tracking
New forecast layout! Learn more

10-Day Weather Forecast

Advertisements
Track Severe Weather on mobile